Aérodrome :
LOGIN :

S'inscrire | Disclaimer

   EN    FR    IT 

 










Légende :    VFR   VFR Marginal   IFR   IFR Intensif   IFR Très Intensif
Visi : 
Plafond : 
>= 8 km
>= 3000ft
5 à 8 km
1000 à 3000 ft
1500m à 5 km
500 à 1000 ft
800 à 1500m
200 à 500 ft
< 800m
< 200 ft
Symboles :   Orages  Brouillard  Fortes neiges  Fortes précipitations  Vent > 20 kt
SIGMETs :   Divers  Orages  Givrage  Turbulence  Onde Orograph.  Cendres Volcan.






- Altitude de l'aérodrome : 39 ft
- Code IATA : CTA


LICC - Catania Fontanarossa

DERNIER METAR :
  • 240620Z 26008KT 9999 BKN080 12/04 Q1011

METARs EXPIRÉS :
  • 240550Z 26009KT 9999 BKN100 12/04 Q1012
  • 240520Z 26009KT 9999 BKN100 12/05 Q1012
  • 240450Z 26007KT 9999 SCT110 11/04 Q1011
  • 240420Z 29009KT 9999 SCT110 10/04 Q1011
  • 240350Z 27010KT CAVOK 08/04 Q1012
  • 240320Z 25006KT CAVOK 08/03 Q1011
  • 240250Z 30003KT 240V350 CAVOK 09/04 Q1011
  • 240220Z 23009KT CAVOK 09/04 Q1011
  • 240150Z 25006KT CAVOK 09/04 Q1011

TAF TAF LICC
Valide du 24 à 06h jusqu'au 25 à 06h UTC


240500Z 2406/2506 28016KT 9999 FEW060
TEMPO 2409/2416 28016G26KT 4000 SHRA



MET'MAP, la Météo Aéronautique d'un coup d'oeil ! - Copyright ORBIFLY Décembre 2007 - Disclaimer

ORBIFLY MET'MAP TEAM :

Programmation & Développement : Alexandra Zaïnal
Sur une idée originale de : Baudouin d'Aumeries
Soutien technique & logistique : Manuel Goepfert
Assistance : Marc-Olivier Méhu




SOURCES & CREDITS :

   NOAA